Time,TemperatureF,DewpointF,PressureIn,WindDirection,WindDirectionDegrees,WindSpeedMPH,WindSpeedGustMPH,Humidity,HourlyPrecipIn,Conditions,Clouds,dailyrainin,SoftwareType,DateUTC
2013-09-08 00:02:00,82.0,63.7,28.47,SE,135,0.0,2.0,54,0.00,,,0.00,meteohub,2013-09-08 05:02:00,
2013-09-08 00:07:00,82.0,63.7,28.47,South,180,1.0,2.0,54,0.00,,,0.00,meteohub,2013-09-08 05:07:00,
2013-09-08 00:12:00,81.9,63.5,28.47,SE,135,1.0,2.0,54,0.00,,,0.00,meteohub,2013-09-08 05:12:00,
2013-09-08 00:17:00,81.5,63.3,28.47,East,90,1.0,2.0,54,0.00,,,0.00,meteohub,2013-09-08 05:17:00,
2013-09-08 00:22:00,81.7,63.5,28.47,South,180,1.0,2.0,54,0.00,,,0.00,meteohub,2013-09-08 05:22:00,
2013-09-08 00:27:00,81.7,63.5,28.47,East,90,1.0,1.0,54,0.00,,,0.00,meteohub,2013-09-08 05:27:00,
2013-09-08 00:32:00,81.3,63.1,28.47,SE,135,1.0,1.0,54,0.00,,,0.00,meteohub,2013-09-08 05:32:00,
2013-09-08 00:37:00,81.1,63.0,28.46,East,90,1.0,1.0,54,0.00,,,0.00,meteohub,2013-09-08 05:37:00,
2013-09-08 00:42:00,81.1,63.5,28.47,East,90,1.0,1.0,55,0.00,,,0.00,meteohub,2013-09-08 05:42:00,
2013-09-08 00:47:00,81.3,63.7,28.47,SE,135,1.0,1.0,55,0.00,,,0.00,meteohub,2013-09-08 05:47:00,
2013-09-08 00:52:00,81.1,63.5,28.46,ESE,113,1.0,1.0,55,0.00,,,0.00,meteohub,2013-09-08 05:52:00,
2013-09-08 00:57:00,81.1,64.0,28.47,East,90,1.0,1.0,56,0.00,,,0.00,meteohub,2013-09-08 05:57:00,
2013-09-08 01:02:00,80.6,63.5,28.47,East,90,0.0,1.0,56,0.00,,,0.00,meteohub,2013-09-08 06:02:00,
2013-09-08 01:07:00,80.4,63.3,28.47,East,90,1.0,1.0,56,0.00,,,0.00,meteohub,2013-09-08 06:07:00,
2013-09-08 01:12:00,80.4,63.3,28.47,East,90,1.0,1.0,56,0.00,,,0.00,meteohub,2013-09-08 06:12:00,
2013-09-08 01:17:00,80.4,63.9,28.47,East,90,0.0,1.0,57,0.00,,,0.00,meteohub,2013-09-08 06:17:00,
2013-09-08 01:22:00,80.2,63.7,28.47,East,90,0.0,1.0,57,0.00,,,0.00,meteohub,2013-09-08 06:22:00,
2013-09-08 01:27:00,80.2,63.7,28.47,East,90,1.0,1.0,57,0.00,,,0.00,meteohub,2013-09-08 06:27:00,
2013-09-08 01:32:00,80.2,63.1,28.47,East,90,1.0,1.0,56,0.00,,,0.00,meteohub,2013-09-08 06:32:00,
2013-09-08 01:37:00,80.4,63.3,28.47,East,90,1.0,1.0,56,0.00,,,0.00,meteohub,2013-09-08 06:37:00,
2013-09-08 01:42:00,80.6,63.5,28.47,East,90,1.0,1.0,56,0.00,,,0.00,meteohub,2013-09-08 06:42:00,
2013-09-08 01:47:00,80.2,63.1,28.47,East,90,0.0,1.0,56,0.00,,,0.00,meteohub,2013-09-08 06:47:00,
2013-09-08 01:52:00,79.9,62.8,28.47,East,90,0.0,1.0,56,0.00,,,0.00,meteohub,2013-09-08 06:52:00,
2013-09-08 01:57:00,79.9,63.3,28.47,East,90,1.0,1.0,57,0.00,,,0.00,meteohub,2013-09-08 06:57:00,
2013-09-08 02:02:00,79.3,63.3,28.47,East,90,1.0,1.0,58,0.00,,,0.00,meteohub,2013-09-08 07:02:00,
2013-09-08 02:07:00,79.5,63.9,28.47,East,90,1.0,1.0,59,0.00,,,0.00,meteohub,2013-09-08 07:07:00,
2013-09-08 02:12:00,79.0,63.9,28.47,East,90,0.0,1.0,60,0.00,,,0.00,meteohub,2013-09-08 07:12:00,
2013-09-08 02:17:00,79.0,63.9,28.47,East,90,0.0,1.0,60,0.00,,,0.00,meteohub,2013-09-08 07:17:00,
2013-09-08 02:22:00,78.4,63.9,28.47,East,90,1.0,1.0,61,0.00,,,0.00,meteohub,2013-09-08 07:22:00,
2013-09-08 02:27:00,78.3,64.2,28.47,East,90,0.0,1.0,62,0.00,,,0.00,meteohub,2013-09-08 07:27:00,
2013-09-08 02:32:00,78.4,64.4,28.47,East,90,0.0,1.0,62,0.00,,,0.00,meteohub,2013-09-08 07:32:00,
2013-09-08 02:37:00,78.1,64.0,28.47,East,90,0.0,1.0,62,0.00,,,0.00,meteohub,2013-09-08 07:37:00,
2013-09-08 02:42:00,78.1,64.0,28.47,SE,135,1.0,1.0,62,0.00,,,0.00,meteohub,2013-09-08 07:42:00,
2013-09-08 02:47:00,78.1,64.0,28.47,East,90,1.0,1.0,62,0.00,,,0.00,meteohub,2013-09-08 07:47:00,
2013-09-08 02:52:00,78.3,64.2,28.47,North,0,1.0,1.0,62,0.00,,,0.00,meteohub,2013-09-08 07:52:00,
2013-09-08 02:57:00,78.3,64.2,28.47,East,90,0.0,1.0,62,0.00,,,0.00,meteohub,2013-09-08 07:57:00,
2013-09-08 03:02:00,78.1,64.0,28.48,East,90,0.0,1.0,62,0.00,,,0.00,meteohub,2013-09-08 08:02:00,
2013-09-08 03:07:00,78.1,64.4,28.48,East,90,0.0,1.0,63,0.00,,,0.00,meteohub,2013-09-08 08:07:00,
2013-09-08 03:12:00,77.5,64.4,28.48,East,90,0.0,1.0,64,0.00,,,0.00,meteohub,2013-09-08 08:12:00,
2013-09-08 03:17:00,77.4,64.2,28.47,East,90,0.0,1.0,64,0.00,,,0.00,meteohub,2013-09-08 08:17:00,
2013-09-08 03:22:00,76.8,64.2,28.47,East,90,0.0,1.0,65,0.00,,,0.00,meteohub,2013-09-08 08:22:00,
2013-09-08 03:27:00,76.8,64.2,28.47,East,90,0.0,0.0,65,0.00,,,0.00,meteohub,2013-09-08 08:27:00,
2013-09-08 03:32:00,76.5,63.9,28.47,East,90,0.0,0.0,65,0.00,,,0.00,meteohub,2013-09-08 08:32:00,
2013-09-08 03:37:00,76.3,63.7,28.47,East,90,0.0,0.0,65,0.00,,,0.00,meteohub,2013-09-08 08:37:00,
2013-09-08 03:42:00,76.1,63.5,28.47,East,90,0.0,0.0,65,0.00,,,0.00,meteohub,2013-09-08 08:42:00,
2013-09-08 03:47:00,76.5,63.9,28.47,East,90,1.0,0.0,65,0.00,,,0.00,meteohub,2013-09-08 08:47:00,
2013-09-08 03:52:00,76.5,63.9,28.47,East,90,0.0,1.0,65,0.00,,,0.00,meteohub,2013-09-08 08:52:00,
2013-09-08 03:57:00,76.6,64.0,28.47,SE,135,0.0,1.0,65,0.00,,,0.00,meteohub,2013-09-08 08:57:00,
2013-09-08 04:02:00,76.3,64.0,28.47,East,90,0.0,1.0,66,0.00,,,0.00,meteohub,2013-09-08 09:02:00,
2013-09-08 04:07:00,76.6,64.4,28.48,East,90,0.0,1.0,66,0.00,,,0.00,meteohub,2013-09-08 09:07:00,
2013-09-08 04:12:00,76.3,64.0,28.47,East,90,0.0,1.0,66,0.00,,,0.00,meteohub,2013-09-08 09:12:00,
2013-09-08 04:17:00,76.1,63.9,28.47,East,90,1.0,1.0,66,0.00,,,0.00,meteohub,2013-09-08 09:17:00,
2013-09-08 04:22:00,76.3,64.6,28.47,East,90,0.0,1.0,67,0.00,,,0.00,meteohub,2013-09-08 09:22:00,
2013-09-08 04:27:00,75.9,64.2,28.47,East,90,0.0,1.0,67,0.00,,,0.00,meteohub,2013-09-08 09:27:00,
2013-09-08 04:31:00,75.7,64.0,28.47,East,90,0.0,1.0,67,0.00,,,0.00,meteohub,2013-09-08 09:31:00,
2013-09-08 04:37:00,75.6,63.9,28.47,East,90,0.0,1.0,67,0.00,,,0.00,meteohub,2013-09-08 09:37:00,
2013-09-08 04:42:00,75.4,64.0,28.47,East,90,0.0,0.0,68,0.00,,,0.00,meteohub,2013-09-08 09:42:00,
2013-09-08 04:47:00,75.2,63.9,28.47,East,90,0.0,0.0,68,0.00,,,0.00,meteohub,2013-09-08 09:47:00,
2013-09-08 04:52:00,75.0,64.2,28.47,East,90,0.0,0.0,69,0.00,,,0.00,meteohub,2013-09-08 09:52:00,
2013-09-08 04:57:00,74.7,63.9,28.47,East,90,0.0,0.0,69,0.00,,,0.00,meteohub,2013-09-08 09:57:00,
2013-09-08 05:02:00,74.7,63.9,28.47,East,90,1.0,0.0,69,0.00,,,0.00,meteohub,2013-09-08 10:02:00,
2013-09-08 05:07:00,75.0,64.2,28.47,East,90,0.0,1.0,69,0.00,,,0.00,meteohub,2013-09-08 10:07:00,
2013-09-08 05:12:00,75.0,64.2,28.47,NE,45,1.0,1.0,69,0.00,,,0.00,meteohub,2013-09-08 10:12:00,
2013-09-08 05:17:00,74.8,64.0,28.47,East,90,0.0,1.0,69,0.00,,,0.00,meteohub,2013-09-08 10:17:00,
2013-09-08 05:22:00,74.7,63.9,28.47,NE,45,1.0,1.0,69,0.00,,,0.00,meteohub,2013-09-08 10:22:00,
2013-09-08 05:27:00,74.7,63.9,28.47,East,90,1.0,1.0,69,0.00,,,0.00,meteohub,2013-09-08 10:27:00,
2013-09-08 05:32:00,74.7,63.3,28.47,East,90,0.0,1.0,68,0.00,,,0.00,meteohub,2013-09-08 10:32:00,
2013-09-08 05:37:00,74.7,63.9,28.47,East,90,1.0,1.0,69,0.00,,,0.00,meteohub,2013-09-08 10:37:00,
2013-09-08 05:42:00,74.7,63.9,28.47,East,90,1.0,1.0,69,0.00,,,0.00,meteohub,2013-09-08 10:42:00,
2013-09-08 05:47:00,74.5,63.7,28.48,East,90,1.0,1.0,69,0.00,,,0.00,meteohub,2013-09-08 10:47:00,
2013-09-08 05:52:00,74.7,63.9,28.47,East,90,0.0,1.0,69,0.00,,,0.00,meteohub,2013-09-08 10:52:00,
2013-09-08 05:57:00,74.1,63.7,28.47,NE,45,1.0,1.0,70,0.00,,,0.00,meteohub,2013-09-08 10:57:00,
2013-09-08 06:02:00,74.1,63.7,28.47,SE,135,1.0,1.0,70,0.00,,,0.00,meteohub,2013-09-08 11:02:00,
2013-09-08 06:07:00,73.9,63.5,28.48,East,90,1.0,1.0,70,0.00,,,0.00,meteohub,2013-09-08 11:07:00,
2013-09-08 06:12:00,74.1,63.3,28.48,East,90,1.0,1.0,69,0.00,,,0.00,meteohub,2013-09-08 11:12:00,
2013-09-08 06:17:00,74.1,63.3,28.48,East,90,1.0,1.0,69,0.00,,,0.00,meteohub,2013-09-08 11:17:00,
2013-09-08 06:22:00,73.9,63.1,28.48,East,90,0.0,1.0,69,0.00,,,0.00,meteohub,2013-09-08 11:22:00,
2013-09-08 06:27:00,73.9,63.1,28.48,East,90,1.0,1.0,69,0.00,,,0.00,meteohub,2013-09-08 11:27:00,
2013-09-08 06:32:00,73.9,63.1,28.48,East,90,0.0,1.0,69,0.00,,,0.00,meteohub,2013-09-08 11:32:00,
2013-09-08 06:37:00,74.1,63.3,28.48,East,90,1.0,1.0,69,0.00,,,0.00,meteohub,2013-09-08 11:37:00,
2013-09-08 06:42:00,74.1,63.3,28.49,East,90,1.0,1.0,69,0.00,,,0.00,meteohub,2013-09-08 11:42:00,
2013-09-08 06:47:00,74.3,63.5,28.49,East,90,0.0,1.0,69,0.00,,,0.00,meteohub,2013-09-08 11:47:00,
2013-09-08 06:52:00,73.9,63.1,28.48,East,90,1.0,1.0,69,0.00,,,0.00,meteohub,2013-09-08 11:52:00,
2013-09-08 06:57:00,73.9,63.1,28.49,SE,135,0.0,1.0,69,0.00,,,0.00,meteohub,2013-09-08 11:57:00,
2013-09-08 07:02:00,73.8,63.0,28.48,SE,135,1.0,1.0,69,0.00,,,0.00,meteohub,2013-09-08 12:02:00,
2013-09-08 07:07:00,73.8,63.0,28.48,SE,135,1.0,1.0,69,0.00,,,0.00,meteohub,2013-09-08 12:07:00,
2013-09-08 07:12:00,73.9,63.1,28.49,East,90,0.0,1.0,69,0.00,,,0.00,meteohub,2013-09-08 12:12:00,
2013-09-08 07:17:00,73.8,63.0,28.48,East,90,0.0,1.0,69,0.00,,,0.00,meteohub,2013-09-08 12:17:00,
2013-09-08 07:22:00,73.6,62.8,28.49,East,90,0.0,1.0,69,0.00,,,0.00,meteohub,2013-09-08 12:22:00,
2013-09-08 07:27:00,73.8,63.0,28.49,East,90,0.0,1.0,69,0.00,,,0.00,meteohub,2013-09-08 12:27:00,
2013-09-08 07:32:00,73.4,62.6,28.49,East,90,0.0,1.0,69,0.00,,,0.00,meteohub,2013-09-08 12:32:00,
2013-09-08 07:37:00,73.4,63.0,28.49,East,90,0.0,1.0,70,0.00,,,0.00,meteohub,2013-09-08 12:37:00,
2013-09-08 07:42:00,73.2,62.8,28.49,East,90,0.0,0.0,70,0.00,,,0.00,meteohub,2013-09-08 12:42:00,
2013-09-08 07:47:00,73.2,63.3,28.50,East,90,0.0,0.0,71,0.00,,,0.00,meteohub,2013-09-08 12:47:00,
2013-09-08 07:52:00,73.2,63.3,28.50,East,90,0.0,0.0,71,0.00,,,0.00,meteohub,2013-09-08 12:52:00,
2013-09-08 07:57:00,73.4,63.5,28.50,East,90,1.0,1.0,71,0.00,,,0.00,meteohub,2013-09-08 12:57:00,
2013-09-08 08:02:00,73.6,63.7,28.50,East,90,0.0,1.0,71,0.00,,,0.00,meteohub,2013-09-08 13:02:00,
2013-09-08 08:07:00,74.3,64.2,28.50,East,90,0.0,1.0,71,0.00,,,0.00,meteohub,2013-09-08 13:07:00,
2013-09-08 08:12:00,74.3,64.2,28.50,East,90,0.0,1.0,71,0.00,,,0.00,meteohub,2013-09-08 13:12:00,
2013-09-08 08:17:00,75.0,64.6,28.50,East,90,1.0,1.0,70,0.00,,,0.00,meteohub,2013-09-08 13:17:00,
2013-09-08 08:22:00,75.2,64.4,28.50,SE,135,0.0,1.0,69,0.00,,,0.00,meteohub,2013-09-08 13:22:00,
2013-09-08 08:27:00,75.6,64.2,28.50,East,90,1.0,1.0,68,0.00,,,0.00,meteohub,2013-09-08 13:27:00,
2013-09-08 08:32:00,76.5,64.8,28.50,SE,135,1.0,1.0,67,0.00,,,0.00,meteohub,2013-09-08 13:32:00,
2013-09-08 08:37:00,77.0,64.4,28.50,SE,135,1.0,1.0,65,0.00,,,0.00,meteohub,2013-09-08 13:37:00,
2013-09-08 08:42:00,77.5,64.4,28.49,East,90,2.0,2.0,64,0.00,,,0.00,meteohub,2013-09-08 13:42:00,
2013-09-08 08:47:00,78.4,64.4,28.50,East,90,1.0,3.0,62,0.00,,,0.00,meteohub,2013-09-08 13:47:00,
2013-09-08 08:52:00,79.2,64.0,28.50,South,180,5.0,5.0,60,0.00,,,0.00,meteohub,2013-09-08 13:52:00,
2013-09-08 08:57:00,79.7,64.0,28.50,East,90,1.0,5.0,59,0.00,,,0.00,meteohub,2013-09-08 13:57:00,
2013-09-08 09:02:00,80.2,64.0,28.49,SE,135,1.0,5.0,58,0.00,,,0.00,meteohub,2013-09-08 14:02:00,
2013-09-08 09:07:00,80.8,64.0,28.49,SE,135,3.0,5.0,57,0.00,,,0.00,meteohub,2013-09-08 14:07:00,
2013-09-08 09:12:00,81.3,64.0,28.49,East,90,1.0,4.0,56,0.00,,,0.00,meteohub,2013-09-08 14:12:00,
2013-09-08 09:17:00,82.0,64.2,28.50,East,90,3.0,4.0,55,0.00,,,0.00,meteohub,2013-09-08 14:17:00,
2013-09-08 09:22:00,82.8,63.9,28.50,South,180,1.0,3.0,53,0.00,,,0.00,meteohub,2013-09-08 14:22:00,
2013-09-08 09:27:00,83.3,63.9,28.50,South,180,3.0,4.0,52,0.00,,,0.00,meteohub,2013-09-08 14:27:00,
2013-09-08 09:32:00,83.5,63.5,28.50,South,180,3.0,4.0,51,0.00,,,0.00,meteohub,2013-09-08 14:32:00,
2013-09-08 09:37:00,83.7,64.2,28.50,SE,135,1.0,7.0,52,0.00,,,0.00,meteohub,2013-09-08 14:37:00,
2013-09-08 09:42:00,84.0,64.6,28.50,East,90,2.0,7.0,52,0.00,,,0.00,meteohub,2013-09-08 14:42:00,
2013-09-08 09:47:00,84.7,64.0,28.50,SE,135,4.0,7.0,50,0.00,,,0.00,meteohub,2013-09-08 14:47:00,
2013-09-08 09:52:00,85.1,64.9,28.50,ENE,68,4.0,5.0,51,0.00,,,0.00,meteohub,2013-09-08 14:52:00,
2013-09-08 09:57:00,85.5,65.3,28.50,East,90,2.0,5.0,51,0.00,,,0.00,meteohub,2013-09-08 14:57:00,
2013-09-08 10:02:00,85.6,64.9,28.50,South,180,1.0,5.0,50,0.00,,,0.00,meteohub,2013-09-08 15:02:00,
2013-09-08 10:07:00,85.8,65.7,28.50,SE,135,3.0,4.0,51,0.00,,,0.00,meteohub,2013-09-08 15:07:00,
2013-09-08 10:12:00,86.0,65.8,28.50,East,90,1.0,4.0,51,0.00,,,0.00,meteohub,2013-09-08 15:12:00,
2013-09-08 10:17:00,86.7,65.8,28.50,East,90,1.0,4.0,50,0.00,,,0.00,meteohub,2013-09-08 15:17:00,
2013-09-08 10:22:00,87.1,65.7,28.50,SE,135,1.0,4.0,49,0.00,,,0.00,meteohub,2013-09-08 15:22:00,
2013-09-08 10:27:00,88.3,65.5,28.49,NE,45,2.0,4.0,47,0.00,,,0.00,meteohub,2013-09-08 15:27:00,
2013-09-08 10:32:00,88.5,65.1,28.50,SE,135,1.0,4.0,46,0.00,,,0.00,meteohub,2013-09-08 15:32:00,
2013-09-08 10:37:00,88.5,65.1,28.50,NE,45,1.0,4.0,46,0.00,,,0.00,meteohub,2013-09-08 15:37:00,
2013-09-08 10:42:00,89.6,64.2,28.49,SE,135,1.0,4.0,43,0.00,,,0.00,meteohub,2013-09-08 15:42:00,
2013-09-08 10:47:00,89.8,63.7,28.49,SW,225,2.0,4.0,42,0.00,,,0.00,meteohub,2013-09-08 15:47:00,
2013-09-08 10:52:00,90.5,64.2,28.49,South,180,1.0,5.0,42,0.00,,,0.00,meteohub,2013-09-08 15:52:00,
2013-09-08 10:57:00,90.7,63.0,28.50,SSE,158,8.0,8.0,40,0.00,,,0.00,meteohub,2013-09-08 15:57:00,
2013-09-08 11:02:00,90.3,64.0,28.49,South,180,5.0,8.0,42,0.00,,,0.00,meteohub,2013-09-08 16:02:00,
2013-09-08 11:07:00,91.0,64.8,28.49,SE,135,1.0,8.0,42,0.00,,,0.00,meteohub,2013-09-08 16:07:00,
2013-09-08 11:12:00,91.4,63.0,28.49,SSE,158,4.0,8.0,39,0.00,,,0.00,meteohub,2013-09-08 16:12:00,
2013-09-08 11:17:00,92.8,62.8,28.50,East,90,8.0,8.0,37,0.00,,,0.00,meteohub,2013-09-08 16:17:00,
2013-09-08 11:22:00,93.0,62.1,28.49,SE,135,4.0,8.0,36,0.00,,,0.00,meteohub,2013-09-08 16:22:00,
2013-09-08 11:27:00,92.8,62.8,28.49,SE,135,4.0,8.0,37,0.00,,,0.00,meteohub,2013-09-08 16:27:00,
2013-09-08 11:32:00,93.2,62.2,28.49,South,180,7.0,9.0,36,0.00,,,0.00,meteohub,2013-09-08 16:32:00,
2013-09-08 11:37:00,93.4,62.4,28.49,South,180,8.0,9.0,36,0.00,,,0.00,meteohub,2013-09-08 16:37:00,
2013-09-08 11:42:00,93.6,61.7,28.49,South,180,8.0,9.0,35,0.00,,,0.00,meteohub,2013-09-08 16:42:00,
2013-09-08 11:47:00,93.6,61.7,28.49,SE,135,7.0,9.0,35,0.00,,,0.00,meteohub,2013-09-08 16:47:00,
2013-09-08 11:52:00,93.9,63.0,28.49,East,90,1.0,13.0,36,0.00,,,0.00,meteohub,2013-09-08 16:52:00,
2013-09-08 11:57:00,94.5,62.6,28.48,SE,135,1.0,13.0,35,0.00,,,0.00,meteohub,2013-09-08 16:57:00,
2013-09-08 12:02:00,95.7,61.2,28.49,SW,225,7.0,13.0,32,0.00,,,0.00,meteohub,2013-09-08 17:02:00,
2013-09-08 12:07:00,95.7,60.3,28.48,North,0,3.0,8.0,31,0.00,,,0.00,meteohub,2013-09-08 17:07:00,
2013-09-08 12:11:00,95.9,60.4,28.48,NW,315,4.0,8.0,31,0.00,,,0.00,meteohub,2013-09-08 17:11:00,
2013-09-08 12:16:00,95.5,59.2,28.48,South,180,7.0,10.0,30,0.00,,,0.00,meteohub,2013-09-08 17:16:00,
2013-09-08 12:22:00,95.4,59.9,28.48,East,90,5.0,10.0,31,0.00,,,0.00,meteohub,2013-09-08 17:22:00,
2013-09-08 12:27:00,96.1,58.6,28.48,NW,315,5.0,10.0,29,0.00,,,0.00,meteohub,2013-09-08 17:27:00,
2013-09-08 12:32:00,96.3,56.8,28.48,South,180,7.0,9.0,27,0.00,,,0.00,meteohub,2013-09-08 17:32:00,
2013-09-08 12:37:00,96.1,57.7,28.47,East,90,8.0,12.0,28,0.00,,,0.00,meteohub,2013-09-08 17:37:00,
2013-09-08 12:42:00,96.4,57.9,28.47,SE,135,4.0,12.0,28,0.00,,,0.00,meteohub,2013-09-08 17:42:00,
2013-09-08 12:47:00,96.6,57.2,28.47,SW,225,8.0,12.0,27,0.00,,,0.00,meteohub,2013-09-08 17:47:00,
2013-09-08 12:52:00,95.9,57.6,28.47,West,270,6.0,11.0,28,0.00,,,0.00,meteohub,2013-09-08 17:52:00,
2013-09-08 12:56:00,96.3,57.9,28.47,SW,225,9.0,12.0,28,0.00,,,0.00,meteohub,2013-09-08 17:56:00,
2013-09-08 13:02:00,95.5,58.3,28.47,SE,135,7.0,12.0,29,0.00,,,0.00,meteohub,2013-09-08 18:02:00,
2013-09-08 13:07:00,95.7,58.5,28.46,South,180,8.0,11.0,29,0.00,,,0.00,meteohub,2013-09-08 18:07:00,
2013-09-08 13:12:00,96.8,57.4,28.46,South,180,4.0,11.0,27,0.00,,,0.00,meteohub,2013-09-08 18:12:00,
2013-09-08 13:16:00,96.8,55.2,28.46,SE,135,15.0,15.0,25,0.00,,,0.00,meteohub,2013-09-08 18:16:00,
2013-09-08 13:22:00,97.2,54.3,28.46,East,90,12.0,15.0,24,0.00,,,0.00,meteohub,2013-09-08 18:22:00,
2013-09-08 13:27:00,97.7,54.9,28.45,SE,135,2.0,15.0,24,0.00,,,0.00,meteohub,2013-09-08 18:27:00,
2013-09-08 13:32:00,97.9,52.5,28.45,South,180,2.0,15.0,22,0.00,,,0.00,meteohub,2013-09-08 18:32:00,
2013-09-08 13:37:00,97.9,52.5,28.45,NE,45,7.0,13.0,22,0.00,,,0.00,meteohub,2013-09-08 18:37:00,
2013-09-08 13:42:00,98.2,52.9,28.45,South,180,7.0,12.0,22,0.00,,,0.00,meteohub,2013-09-08 18:42:00,
2013-09-08 13:47:00,98.4,50.4,28.45,East,90,10.0,12.0,20,0.00,,,0.00,meteohub,2013-09-08 18:47:00,
2013-09-08 13:52:00,98.2,51.6,28.45,South,180,8.0,12.0,21,0.00,,,0.00,meteohub,2013-09-08 18:52:00,
2013-09-08 13:57:00,98.6,52.0,28.45,East,90,1.0,11.0,21,0.00,,,0.00,meteohub,2013-09-08 18:57:00,
2013-09-08 14:02:00,98.8,49.3,28.45,East,90,6.0,11.0,19,0.00,,,0.00,meteohub,2013-09-08 19:02:00,
2013-09-08 14:07:00,99.0,46.6,28.45,East,90,12.0,12.0,17,0.00,,,0.00,meteohub,2013-09-08 19:07:00,
2013-09-08 14:12:00,97.7,49.8,28.44,NE,45,4.0,15.0,20,0.00,,,0.00,meteohub,2013-09-08 19:12:00,
2013-09-08 14:17:00,98.4,49.1,28.44,East,90,4.0,15.0,19,0.00,,,0.00,meteohub,2013-09-08 19:17:00,
2013-09-08 14:22:00,98.8,47.8,28.44,East,90,7.0,14.0,18,0.00,,,0.00,meteohub,2013-09-08 19:22:00,
2013-09-08 14:27:00,99.3,43.5,28.44,NE,45,10.0,13.0,15,0.00,,,0.00,meteohub,2013-09-08 19:27:00,
2013-09-08 14:32:00,99.9,43.9,28.44,SE,135,7.0,13.0,15,0.00,,,0.00,meteohub,2013-09-08 19:32:00,
2013-09-08 14:37:00,99.7,45.5,28.44,SE,135,6.0,12.0,16,0.00,,,0.00,meteohub,2013-09-08 19:37:00,
2013-09-08 14:42:00,99.9,45.7,28.43,East,90,8.0,12.0,16,0.00,,,0.00,meteohub,2013-09-08 19:42:00,
2013-09-08 14:47:00,100.4,44.4,28.43,South,180,10.0,10.0,15,0.00,,,0.00,meteohub,2013-09-08 19:47:00,
2013-09-08 14:52:00,100.0,44.1,28.43,South,180,14.0,14.0,15,0.00,,,0.00,meteohub,2013-09-08 19:52:00,
2013-09-08 14:57:00,99.9,45.7,28.43,SE,135,6.0,14.0,16,0.00,,,0.00,meteohub,2013-09-08 19:57:00,
2013-09-08 15:02:00,100.6,46.2,28.42,SE,135,6.0,14.0,16,0.00,,,0.00,meteohub,2013-09-08 20:02:00,
2013-09-08 15:07:00,100.8,44.6,28.42,North,0,7.0,14.0,15,0.00,,,0.00,meteohub,2013-09-08 20:07:00,
2013-09-08 15:12:00,99.9,45.7,28.42,East,90,8.0,10.0,16,0.00,,,0.00,meteohub,2013-09-08 20:12:00,
2013-09-08 15:17:00,99.9,45.7,28.42,SE,135,7.0,14.0,16,0.00,,,0.00,meteohub,2013-09-08 20:17:00,
2013-09-08 15:22:00,100.2,45.9,28.41,SE,135,4.0,14.0,16,0.00,,,0.00,meteohub,2013-09-08 20:22:00,
2013-09-08 15:27:00,100.0,44.1,28.41,East,90,9.0,15.0,15,0.00,,,0.00,meteohub,2013-09-08 20:27:00,
2013-09-08 15:32:00,99.5,45.3,28.41,East,90,2.0,15.0,16,0.00,,,0.00,meteohub,2013-09-08 20:32:00,
2013-09-08 15:37:00,100.2,45.9,28.41,SE,135,1.0,15.0,16,0.00,,,0.00,meteohub,2013-09-08 20:37:00,
2013-09-08 15:42:00,100.2,44.2,28.41,East,90,13.0,15.0,15,0.00,,,0.00,meteohub,2013-09-08 20:42:00,
2013-09-08 15:47:00,100.0,44.1,28.40,East,90,9.0,15.0,15,0.00,,,0.00,meteohub,2013-09-08 20:47:00,
2013-09-08 15:52:00,99.3,46.8,28.40,SE,135,4.0,15.0,17,0.00,,,0.00,meteohub,2013-09-08 20:52:00,
2013-09-08 15:57:00,100.2,45.9,28.40,South,180,7.0,13.0,16,0.00,,,0.00,meteohub,2013-09-08 20:57:00,
2013-09-08 16:02:00,100.8,46.4,28.40,East,90,7.0,11.0,16,0.00,,,0.00,meteohub,2013-09-08 21:02:00,
2013-09-08 16:07:00,100.8,44.6,28.40,NE,45,4.0,15.0,15,0.00,,,0.00,meteohub,2013-09-08 21:07:00,
2013-09-08 16:12:00,100.8,42.8,28.40,East,90,7.0,15.0,14,0.00,,,0.00,meteohub,2013-09-08 21:12:00,
2013-09-08 16:17:00,100.6,46.2,28.39,East,90,8.0,14.0,16,0.00,,,0.00,meteohub,2013-09-08 21:17:00,
2013-09-08 16:22:00,100.2,47.5,28.39,NE,45,8.0,14.0,17,0.00,,,0.00,meteohub,2013-09-08 21:22:00,
2013-09-08 16:27:00,99.9,47.3,28.39,East,90,2.0,14.0,17,0.00,,,0.00,meteohub,2013-09-08 21:27:00,
2013-09-08 16:32:00,99.5,46.9,28.39,SE,135,16.0,16.0,17,0.00,,,0.00,meteohub,2013-09-08 21:32:00,
2013-09-08 16:37:00,99.5,46.9,28.39,East,90,7.0,16.0,17,0.00,,,0.00,meteohub,2013-09-08 21:37:00,
2013-09-08 16:42:00,100.2,49.1,28.38,NW,315,4.0,16.0,18,0.00,,,0.00,meteohub,2013-09-08 21:42:00,
2013-09-08 16:47:00,100.8,46.4,28.39,SE,135,10.0,16.0,16,0.00,,,0.00,meteohub,2013-09-08 21:47:00,
2013-09-08 16:52:00,99.0,48.0,28.38,East,90,9.0,11.0,18,0.00,,,0.00,meteohub,2013-09-08 21:52:00,
2013-09-08 16:57:00,98.8,49.3,28.38,East,90,1.0,11.0,19,0.00,,,0.00,meteohub,2013-09-08 21:57:00,
2013-09-08 17:02:00,99.5,48.6,28.38,SE,135,4.0,15.0,18,0.00,,,0.00,meteohub,2013-09-08 22:02:00,
2013-09-08 17:07:00,99.7,47.1,28.38,East,90,12.0,15.0,17,0.00,,,0.00,meteohub,2013-09-08 22:07:00,
2013-09-08 17:12:00,98.4,49.1,28.38,SE,135,4.0,15.0,19,0.00,,,0.00,meteohub,2013-09-08 22:12:00,
2013-09-08 17:17:00,98.8,49.3,28.38,SE,135,8.0,13.0,19,0.00,,,0.00,meteohub,2013-09-08 22:17:00,
2013-09-08 17:22:00,99.1,46.8,28.38,East,90,2.0,13.0,17,0.00,,,0.00,meteohub,2013-09-08 22:22:00,
2013-09-08 17:27:00,99.5,48.6,28.38,East,90,12.0,13.0,18,0.00,,,0.00,meteohub,2013-09-08 22:27:00,
2013-09-08 17:32:00,99.1,46.8,28.37,East,90,13.0,13.0,17,0.00,,,0.00,meteohub,2013-09-08 22:32:00,
2013-09-08 17:37:00,99.1,48.2,28.37,East,90,9.0,14.0,18,0.00,,,0.00,meteohub,2013-09-08 22:37:00,
2013-09-08 17:42:00,98.6,47.8,28.37,SE,135,7.0,14.0,18,0.00,,,0.00,meteohub,2013-09-08 22:42:00,
2013-09-08 17:47:00,99.0,48.0,28.37,NW,315,8.0,17.0,18,0.00,,,0.00,meteohub,2013-09-08 22:47:00,
2013-09-08 17:52:00,99.0,46.6,28.36,East,90,8.0,17.0,17,0.00,,,0.00,meteohub,2013-09-08 22:52:00,
2013-09-08 17:57:00,98.8,47.8,28.37,SE,135,5.0,17.0,18,0.00,,,0.00,meteohub,2013-09-08 22:57:00,
2013-09-08 18:02:00,98.2,47.5,28.37,SE,135,9.0,9.0,18,0.00,,,0.00,meteohub,2013-09-08 23:02:00,
2013-09-08 18:07:00,98.1,47.3,28.36,ESE,113,8.0,15.0,18,0.00,,,0.00,meteohub,2013-09-08 23:07:00,
2013-09-08 18:12:00,97.7,45.5,28.36,East,90,7.0,15.0,17,0.00,,,0.00,meteohub,2013-09-08 23:12:00,
2013-09-08 18:17:00,97.7,47.1,28.36,East,90,5.0,15.0,18,0.00,,,0.00,meteohub,2013-09-08 23:17:00,
2013-09-08 18:22:00,98.1,47.3,28.36,East,90,8.0,13.0,18,0.00,,,0.00,meteohub,2013-09-08 23:22:00,
2013-09-08 18:27:00,97.3,46.8,28.36,SE,135,5.0,13.0,18,0.00,,,0.00,meteohub,2013-09-08 23:27:00,
2013-09-08 18:32:00,97.5,45.3,28.36,SE,135,11.0,13.0,17,0.00,,,0.00,meteohub,2013-09-08 23:32:00,
2013-09-08 18:37:00,97.3,45.3,28.36,SE,135,7.0,11.0,17,0.00,,,0.00,meteohub,2013-09-08 23:37:00,
2013-09-08 18:42:00,97.2,45.1,28.37,South,180,11.0,11.0,17,0.00,,,0.00,meteohub,2013-09-08 23:42:00,
2013-09-08 18:47:00,97.2,46.6,28.36,SE,135,6.0,11.0,18,0.00,,,0.00,meteohub,2013-09-08 23:47:00,
2013-09-08 18:52:00,96.8,46.2,28.36,SE,135,8.0,11.0,18,0.00,,,0.00,meteohub,2013-09-08 23:52:00,
2013-09-08 18:57:00,96.8,46.2,28.36,East,90,1.0,11.0,18,0.00,,,0.00,meteohub,2013-09-08 23:57:00,
2013-09-08 19:02:00,96.4,46.0,28.37,East,90,11.0,11.0,18,0.00,,,0.00,meteohub,2013-09-09 00:02:00,
2013-09-08 19:07:00,95.9,45.5,28.37,SE,135,7.0,11.0,18,0.00,,,0.00,meteohub,2013-09-09 00:07:00,
2013-09-08 19:12:00,95.7,46.9,28.37,East,90,7.0,12.0,19,0.00,,,0.00,meteohub,2013-09-09 00:12:00,
2013-09-08 19:17:00,95.4,46.6,28.37,East,90,8.0,12.0,19,0.00,,,0.00,meteohub,2013-09-09 00:17:00,
2013-09-08 19:22:00,95.0,46.2,28.37,East,90,8.0,12.0,19,0.00,,,0.00,meteohub,2013-09-09 00:22:00,
2013-09-08 19:27:00,95.0,47.7,28.37,East,90,7.0,11.0,20,0.00,,,0.00,meteohub,2013-09-09 00:27:00,
2013-09-08 19:32:00,94.5,47.1,28.37,SE,135,8.0,11.0,20,0.00,,,0.00,meteohub,2013-09-09 00:32:00,
2013-09-08 19:37:00,94.3,48.4,28.37,East,90,8.0,11.0,21,0.00,,,0.00,meteohub,2013-09-09 00:37:00,
2013-09-08 19:42:00,93.9,48.0,28.37,East,90,6.0,8.0,21,0.00,,,0.00,meteohub,2013-09-09 00:42:00,
2013-09-08 19:47:00,93.2,47.5,28.37,East,90,7.0,8.0,21,0.00,,,0.00,meteohub,2013-09-09 00:47:00,
2013-09-08 19:52:00,93.2,48.7,28.37,NE,45,4.0,8.0,22,0.00,,,0.00,meteohub,2013-09-09 00:52:00,
2013-09-08 19:57:00,92.7,48.2,28.38,East,90,6.0,7.0,22,0.00,,,0.00,meteohub,2013-09-09 00:57:00,
2013-09-08 20:02:00,92.1,48.9,28.38,NW,315,1.0,7.0,23,0.00,,,0.00,meteohub,2013-09-09 01:02:00,
2013-09-08 20:07:00,91.6,48.6,28.38,NE,45,1.0,8.0,23,0.00,,,0.00,meteohub,2013-09-09 01:07:00,
2013-09-08 20:12:00,91.2,49.5,28.38,SE,135,2.0,8.0,24,0.00,,,0.00,meteohub,2013-09-09 01:12:00,
2013-09-08 20:17:00,91.0,49.3,28.38,NE,45,6.0,8.0,24,0.00,,,0.00,meteohub,2013-09-09 01:17:00,
2013-09-08 20:22:00,90.7,50.0,28.38,NE,45,7.0,8.0,25,0.00,,,0.00,meteohub,2013-09-09 01:22:00,
2013-09-08 20:27:00,90.5,49.8,28.38,SE,135,8.0,8.0,25,0.00,,,0.00,meteohub,2013-09-09 01:27:00,
2013-09-08 20:32:00,90.0,49.5,28.38,ESE,113,1.0,8.0,25,0.00,,,0.00,meteohub,2013-09-09 01:32:00,
2013-09-08 20:37:00,90.0,50.5,28.38,SE,135,1.0,8.0,26,0.00,,,0.00,meteohub,2013-09-09 01:37:00,
2013-09-08 20:42:00,89.6,50.2,28.39,East,90,3.0,8.0,26,0.00,,,0.00,meteohub,2013-09-09 01:42:00,
2013-09-08 20:47:00,89.6,50.2,28.39,East,90,1.0,8.0,26,0.00,,,0.00,meteohub,2013-09-09 01:47:00,
2013-09-08 20:52:00,89.1,50.7,28.39,East,90,2.0,9.0,27,0.00,,,0.00,meteohub,2013-09-09 01:52:00,
2013-09-08 20:57:00,88.9,50.5,28.39,East,90,2.0,9.0,27,0.00,,,0.00,meteohub,2013-09-09 01:57:00,
2013-09-08 21:02:00,88.7,50.4,28.39,SE,135,6.0,9.0,27,0.00,,,0.00,meteohub,2013-09-09 02:02:00,
2013-09-08 21:07:00,88.5,51.3,28.39,North,0,1.0,7.0,28,0.00,,,0.00,meteohub,2013-09-09 02:07:00,
2013-09-08 21:12:00,88.2,52.0,28.40,NE,45,9.0,9.0,29,0.00,,,0.00,meteohub,2013-09-09 02:12:00,
2013-09-08 21:17:00,88.2,52.0,28.40,South,180,2.0,9.0,29,0.00,,,0.00,meteohub,2013-09-09 02:17:00,
2013-09-08 21:22:00,87.8,51.6,28.41,East,90,1.0,9.0,29,0.00,,,0.00,meteohub,2013-09-09 02:22:00,
2013-09-08 21:27:00,87.6,52.3,28.40,East,90,1.0,9.0,30,0.00,,,0.00,meteohub,2013-09-09 02:27:00,
2013-09-08 21:32:00,87.6,52.3,28.41,East,90,6.0,8.0,30,0.00,,,0.00,meteohub,2013-09-09 02:32:00,
2013-09-08 21:37:00,87.4,52.2,28.40,NE,45,10.0,10.0,30,0.00,,,0.00,meteohub,2013-09-09 02:37:00,
2013-09-08 21:42:00,87.3,52.0,28.41,East,90,5.0,10.0,30,0.00,,,0.00,meteohub,2013-09-09 02:42:00,
2013-09-08 21:47:00,87.3,52.9,28.41,East,90,7.0,10.0,31,0.00,,,0.00,meteohub,2013-09-09 02:47:00,
2013-09-08 21:52:00,86.7,52.5,28.41,East,90,1.0,10.0,31,0.00,,,0.00,meteohub,2013-09-09 02:52:00,
2013-09-08 21:57:00,86.5,53.2,28.42,SE,135,2.0,10.0,32,0.00,,,0.00,meteohub,2013-09-09 02:57:00,
2013-09-08 22:02:00,86.4,53.8,28.42,East,90,9.0,10.0,33,0.00,,,0.00,meteohub,2013-09-09 03:02:00,
2013-09-08 22:07:00,86.0,53.6,28.42,NE,45,5.0,9.0,33,0.00,,,0.00,meteohub,2013-09-09 03:07:00,
2013-09-08 22:12:00,85.8,54.1,28.42,East,90,5.0,9.0,34,0.00,,,0.00,meteohub,2013-09-09 03:12:00,
2013-09-08 22:17:00,85.6,54.0,28.42,SE,135,7.0,9.0,34,0.00,,,0.00,meteohub,2013-09-09 03:17:00,
2013-09-08 22:22:00,85.1,54.3,28.42,SE,135,5.0,8.0,35,0.00,,,0.00,meteohub,2013-09-09 03:22:00,
2013-09-08 22:27:00,84.6,54.7,28.42,East,90,7.0,9.0,36,0.00,,,0.00,meteohub,2013-09-09 03:27:00,
2013-09-08 22:32:00,84.6,55.4,28.43,East,90,8.0,9.0,37,0.00,,,0.00,meteohub,2013-09-09 03:32:00,
2013-09-08 22:37:00,84.4,55.9,28.42,SE,135,10.0,10.0,38,0.00,,,0.00,meteohub,2013-09-09 03:37:00,
2013-09-08 22:42:00,84.2,55.8,28.43,East,90,7.0,11.0,38,0.00,,,0.00,meteohub,2013-09-09 03:42:00,
2013-09-08 22:47:00,84.0,55.8,28.43,East,90,8.0,11.0,38,0.00,,,0.00,meteohub,2013-09-09 03:47:00,
2013-09-08 22:52:00,83.8,56.3,28.43,East,90,8.0,11.0,39,0.00,,,0.00,meteohub,2013-09-09 03:52:00,
2013-09-08 22:57:00,84.2,56.5,28.43,East,90,5.0,10.0,39,0.00,,,0.00,meteohub,2013-09-09 03:57:00,
2013-09-08 23:01:00,84.0,57.0,28.43,SE,135,6.0,10.0,40,0.00,,,0.00,meteohub,2013-09-09 04:01:00,
2013-09-08 23:02:00,83.7,56.8,28.43,South,180,4.0,10.0,40,0.00,,,0.00,meteohub,2013-09-09 04:02:00,
2013-09-08 23:04:00,83.5,56.7,28.43,SE,135,5.0,10.0,40,0.00,,,0.00,meteohub,2013-09-09 04:04:00,
2013-09-08 23:09:00,83.5,57.4,28.43,East,90,6.0,10.0,41,0.00,,,0.00,meteohub,2013-09-09 04:09:00,
2013-09-08 23:14:00,83.1,57.0,28.43,East,90,1.0,9.0,41,0.00,,,0.00,meteohub,2013-09-09 04:14:00,
2013-09-08 23:19:00,82.9,57.6,28.44,NE,45,8.0,9.0,42,0.00,,,0.00,meteohub,2013-09-09 04:19:00,
2013-09-08 23:24:00,82.9,57.6,28.43,East,90,1.0,9.0,42,0.00,,,0.00,meteohub,2013-09-09 04:24:00,
2013-09-08 23:29:00,82.6,57.7,28.43,East,90,1.0,9.0,43,0.00,,,0.00,meteohub,2013-09-09 04:29:00,
2013-09-08 23:34:00,82.4,57.7,28.43,East,90,2.0,9.0,43,0.00,,,0.00,meteohub,2013-09-09 04:34:00,
2013-09-08 23:39:00,82.4,58.3,28.43,North,0,5.0,9.0,44,0.00,,,0.00,meteohub,2013-09-09 04:39:00,
2013-09-08 23:44:00,82.2,58.1,28.43,North,0,5.0,6.0,44,0.00,,,0.00,meteohub,2013-09-09 04:44:00,
2013-09-08 23:50:00,82.0,58.6,28.43,SE,135,8.0,10.0,45,0.00,,,0.00,meteohub,2013-09-09 04:50:00,
2013-09-08 23:55:00,81.7,58.3,28.43,East,90,6.0,10.0,45,0.00,,,0.00,meteohub,2013-09-09 04:55:00,